Time;durP1;ratioP1;P1;durP2;ratioP2;P2;SDS_P1;SDS_P2;PMS_P1;PMS_P2;Temp;Humidity;BMP_temperature;BMP_pressure;BME280_temperature;BME280_humidity;BME280_pressure;Samples;Min_cycle;Max_cycle;Signal;HPM_P1;HPM_P2
2021/05/16 00:01:20;;;;;;;4.40;3.95;;;;;;;18.29;66.03;100076.00;5164879;24;20089;-88
2021/05/16 00:06:39;;;;;;;;;;;;;;;18.28;67.73;100062.13;4936726;24;20409;-89
2021/05/16 01:31:15;;;;;;;3.75;3.20;;;;;;;18.32;64.64;100062.91;5108060;24;20134;-89
2021/05/16 06:29:10;;;;;;;2.72;1.20;;;;;;;18.65;60.70;100100.28;4930670;24;20071;-87
2021/05/16 06:31:55;;;;;;;2.08;1.00;;;;;;;18.65;60.77;100102.03;4791425;30;20051;-87
2021/05/16 07:09:26;;;;;;;4.72;1.70;;;;;;;18.93;59.58;100106.56;4882803;24;20063;-89
2021/05/16 07:11:51;;;;;;;4.85;1.83;;;;;;;18.90;59.22;100104.88;4756944;30;20111;-90
2021/05/16 07:14:23;;;;;;;4.57;2.05;;;;;;;18.88;59.34;100115.38;4770068;30;20074;-89
2021/05/16 07:22:55;;;;;;;3.65;2.10;;;;;;;18.84;59.01;100113.72;4846482;24;20089;-90
2021/05/16 07:28:51;;;;;;;6.00;1.95;;;;;;;18.87;59.12;100118.00;4842344;24;20092;-89
2021/05/16 07:31:17;;;;;;;5.18;2.30;;;;;;;18.85;59.15;100117.19;4781398;30;20125;-89
2021/05/16 07:33:48;;;;;;;4.40;1.90;;;;;;;18.88;58.95;100124.94;4781780;30;20031;-87
2021/05/16 07:36:14;;;;;;;4.30;2.15;;;;;;;18.88;58.78;100120.59;4785320;30;20488;-89
2021/05/16 07:38:39;;;;;;;3.97;2.20;;;;;;;18.87;58.82;100121.47;4784543;30;20062;-89
2021/05/16 07:41:05;;;;;;;4.53;1.88;;;;;;;18.88;58.59;100125.78;4770146;30;20039;-90
2021/05/16 07:43:30;;;;;;;3.78;1.67;;;;;;;18.86;58.79;100131.94;4769735;30;20036;-91
2021/05/16 07:45:56;;;;;;;4.53;1.90;;;;;;;18.84;58.84;100118.94;4767523;30;20035;-90
2021/05/16 07:48:40;;;;;;;6.88;2.00;;;;;;;18.84;58.79;100118.09;4785361;30;20042;-87
2021/05/16 07:51:06;;;;;;;5.03;1.90;;;;;;;18.85;58.64;100119.78;4777812;30;20102;-89
2021/05/16 07:53:32;;;;;;;4.45;1.80;;;;;;;18.86;58.23;100121.53;4774022;30;20043;-87
2021/05/16 08:02:43;;;;;;;5.18;2.03;;;;;;;18.90;59.49;100131.81;4809260;29;20136;-88
2021/05/16 08:08:31;;;;;;;4.40;1.95;;;;;;;18.99;58.54;100127.25;4839628;24;20081;-89
2021/05/16 08:10:56;;;;;;;4.13;1.52;;;;;;;19.11;58.66;100129.53;4770301;30;20036;-89
2021/05/16 08:13:21;;;;;;;2.83;1.70;;;;;;;19.14;59.58;100132.06;4749471;30;20034;-88
2021/05/16 08:15:47;;;;;;;5.47;2.00;;;;;;;19.18;59.20;100122.41;4762220;30;20036;-91
2021/05/16 08:18:12;;;;;;;4.22;2.00;;;;;;;19.22;60.36;100126.63;4760733;30;20028;-89
2021/05/16 08:52:55;;;;;;;3.90;1.30;;;;;;;18.90;58.41;100136.16;1921060;24;20263;-86
2021/05/16 09:02:23;;;;;;;3.28;1.35;;;;;;;19.11;58.69;100140.81;4865466;24;21196;-87
2021/05/16 09:04:51;;;;;;;4.85;1.60;;;;;;;19.25;58.42;100136.97;4801102;24;20048;-88
2021/05/16 09:07:30;;;;;;;3.42;1.70;;;;;;;19.29;59.97;100142.09;4840631;24;20055;-87
2021/05/16 09:30:45;;;;;;;2.95;1.27;;;;;;;19.38;59.15;100146.19;4772900;30;20515;-89
2021/05/16 09:50:15;;;;;;;3.22;1.40;;;;;;;19.31;58.92;100148.13;4793044;24;20097;-87
2021/05/16 09:52:56;;;;;;;2.95;1.25;;;;;;;19.38;59.16;100147.91;4741049;30;20048;-88
2021/05/16 09:55:24;;;;;;;2.90;1.50;;;;;;;19.41;59.15;100153.94;4756227;30;20123;-88
2021/05/16 09:57:52;;;;;;;4.88;1.42;;;;;;;19.41;59.18;100151.31;4756733;30;20028;-87
2021/05/16 10:00:18;;;;;;;2.53;1.42;;;;;;;19.42;58.72;100139.97;4756200;30;20039;-89
2021/05/16 10:02:44;;;;;;;3.72;1.45;;;;;;;19.41;58.22;100146.09;4741062;30;20113;-87
2021/05/16 10:05:11;;;;;;;3.45;1.40;;;;;;;19.41;58.71;100146.09;4756095;30;20480;-88
2021/05/16 10:07:39;;;;;;;4.40;1.30;;;;;;;19.41;58.42;100147.84;4757422;30;20047;-89
2021/05/16 10:10:13;;;;;;;4.68;1.50;;;;;;;19.44;58.86;100145.16;4759205;30;20051;-87
2021/05/16 10:12:41;;;;;;;;;;;;;;;19.47;59.06;100147.69;4757428;30;20036;-90
2021/05/16 10:21:47;;;;;;;8.88;1.77;;;;;;;19.47;58.36;100145.06;5028379;24;20067;-91
2021/05/16 10:24:19;;;;;;;2.50;1.40;;;;;;;19.49;58.59;100146.75;4771298;30;20050;-92
2021/05/16 10:27:17;;;;;;;4.38;1.70;;;;;;;19.51;58.64;100155.38;4781909;30;20112;-93
2021/05/16 10:37:15;;;;;;;3.78;1.13;;;;;;;19.49;58.38;100148.50;4738170;30;20060;-90
2021/05/16 10:50:21;;;;;;;3.47;1.35;;;;;;;19.48;59.12;100138.94;4749273;30;20066;-91
2021/05/16 11:02:07;;;;;;;3.72;1.50;;;;;;;19.46;58.47;100144.19;4777796;30;20055;-92
2021/05/16 11:10:55;;;;;;;3.78;1.50;;;;;;;19.50;58.49;100142.38;4779163;30;20112;-91
2021/05/16 11:13:27;;;;;;;3.50;1.38;;;;;;;19.50;57.88;100148.44;4760583;30;20144;-92
2021/05/16 11:16:09;;;;;;;3.63;1.48;;;;;;;19.50;58.52;100144.97;4764450;24;20075;-91
2021/05/16 11:18:35;;;;;;;6.75;1.50;;;;;;;19.50;58.26;100148.44;4769162;30;20024;-89
2021/05/16 11:21:06;;;;;;;5.18;1.83;;;;;;;19.50;58.42;100138.00;4764654;30;20042;-90
2021/05/16 11:23:32;;;;;;;10.50;6.45;;;;;;;19.52;58.55;100137.97;4783878;24;20055;-91
2021/05/16 11:26:19;;;;;;;13.25;8.10;;;;;;;19.56;58.32;100147.41;4776500;30;20043;-89
2021/05/16 11:28:55;;;;;;;15.18;8.70;;;;;;;19.55;58.13;100134.41;4775694;30;20053;-89
2021/05/16 11:31:22;;;;;;;11.63;8.02;;;;;;;19.55;58.29;100143.09;4776498;30;20065;-91
2021/05/16 11:33:59;;;;;;;12.65;8.50;;;;;;;19.50;58.38;100135.38;4774865;30;20038;-91
2021/05/16 11:36:27;;;;;;;12.90;8.48;;;;;;;19.53;58.19;100143.16;4776154;30;20035;-90
2021/05/16 11:38:54;;;;;;;11.32;7.93;;;;;;;19.54;58.48;100141.38;4775892;30;20031;-89
2021/05/16 11:41:45;;;;;;;10.00;6.88;;;;;;;19.55;58.36;100143.09;4776136;30;20122;-90
2021/05/16 11:44:12;;;;;;;11.40;7.55;;;;;;;19.53;58.07;100137.94;4752749;30;20055;-92
2021/05/16 11:46:43;;;;;;;11.05;7.45;;;;;;;19.53;58.30;100135.31;4776077;30;20023;-90
2021/05/16 11:49:11;;;;;;;11.48;6.30;;;;;;;19.53;58.10;100137.94;4745969;30;20410;-88
2021/05/16 11:51:40;;;;;;;10.38;6.82;;;;;;;19.55;58.37;100142.25;4774732;30;20027;-87
2021/05/16 11:54:08;;;;;;;10.75;6.10;;;;;;;19.57;58.40;100140.44;4776327;30;20074;-89
2021/05/16 11:56:40;;;;;;;9.18;6.20;;;;;;;19.57;58.08;100137.81;4776404;30;20027;-87
2021/05/16 11:59:07;;;;;;;10.50;6.40;;;;;;;19.59;58.30;100143.88;4775061;30;20023;-89
2021/05/16 12:01:40;;;;;;;9.63;5.70;;;;;;;19.57;58.51;100137.81;4777453;30;20035;-88
2021/05/16 12:04:17;;;;;;;10.63;5.47;;;;;;;19.58;58.49;100134.34;4777159;30;20042;-93
2021/05/16 12:06:56;;;;;;;10.02;5.43;;;;;;;19.59;58.27;100130.81;4777942;30;20028;-90
2021/05/16 12:09:25;;;;;;;6.95;4.88;;;;;;;19.58;57.96;100136.94;4765502;30;20108;-90
2021/05/16 12:11:52;;;;;;;8.00;4.72;;;;;;;19.56;58.09;100128.31;4778806;30;20031;-88
2021/05/16 12:14:23;;;;;;;8.40;4.93;;;;;;;19.56;57.91;100128.31;4799872;30;20035;-88
2021/05/16 12:16:56;;;;;;;8.90;4.72;;;;;;;19.52;57.93;100130.97;4783767;30;20099;-90
2021/05/16 12:19:24;;;;;;;8.80;4.90;;;;;;;19.55;58.24;100129.19;4783176;30;20035;-88
2021/05/16 12:21:56;;;;;;;8.80;4.90;;;;;;;19.55;58.15;100129.19;4783729;30;20039;-90
2021/05/16 12:24:23;;;;;;;7.80;4.47;;;;;;;19.54;58.07;100136.16;4782896;30;20093;-89
2021/05/16 12:26:50;;;;;;;8.48;5.25;;;;;;;19.55;58.14;100130.03;4767689;30;20048;-90
2021/05/16 12:29:17;;;;;;;7.90;4.97;;;;;;;19.57;57.91;100130.84;4780311;30;20031;-90
2021/05/16 12:31:44;;;;;;;9.07;5.07;;;;;;;19.59;58.03;100136.03;4780324;30;20487;-89
2021/05/16 12:34:15;;;;;;;8.65;4.82;;;;;;;19.61;57.91;100121.19;4778443;30;20039;-89
2021/05/16 12:37:07;;;;;;;;;;;;;;;;;;;;;
2021/05/16 12:39:47;;;;;;;10.30;4.53;;;;;;;19.65;57.78;100128.88;4792170;30;20027;-91
2021/05/16 12:42:34;;;;;;;11.23;4.65;;;;;;;19.66;57.65;100132.34;4793541;24;20044;-90
2021/05/16 12:45:22;;;;;;;10.55;4.55;;;;;;;19.67;57.76;100134.06;4771489;30;20135;-90
2021/05/16 12:57:46;;;;;;;10.85;3.85;;;;;;;19.70;58.11;100120.94;4764208;30;20044;-91
2021/05/16 13:00:44;;;;;;;11.18;3.67;;;;;;;19.70;57.62;100121.78;4758254;30;20044;-91
2021/05/16 13:04:00;;;;;;;10.15;4.07;;;;;;;19.70;57.93;100124.41;4738573;30;20044;-91
2021/05/16 13:06:34;;;;;;;8.50;3.83;;;;;;;19.70;57.87;100126.16;4736720;30;20447;-91
2021/05/16 13:09:39;;;;;;;;;;;;;;;;;;;;;
2021/05/16 13:12:26;;;;;;;8.60;3.65;;;;;;;19.74;57.81;100114.72;4757100;30;20111;-91
2021/05/16 13:15:12;;;;;;;10.10;3.72;;;;;;;19.73;57.66;100113.88;4757350;30;20495;-92
2021/05/16 13:17:53;;;;;;;7.07;3.35;;;;;;;19.75;57.81;100116.44;4757224;30;20028;-90
2021/05/16 13:20:42;;;;;;;;;;;;;;;;;;;;;
2021/05/16 13:24:10;;;;;;;;;;;;;;;;;;;;;
2021/05/16 13:27:32;;;;;;;;;;;;;;;;;;;;;
2021/05/16 13:30:15;;;;;;;9.07;3.40;;;;;;;19.82;58.09;100114.50;4756601;30;20123;-91
2021/05/16 13:33:17;;;;;;;;;;;;;;;;;;;;;
2021/05/16 13:35:45;;;;;;;9.05;3.05;;;;;;;19.84;58.33;100128.38;4758747;30;20091;-92
2021/05/16 13:41:23;;;;;;;7.57;3.13;;;;;;;19.86;58.29;100114.38;4735963;30;20071;-91
2021/05/16 13:44:24;;;;;;;6.55;2.80;;;;;;;19.83;58.33;100108.38;4753517;30;20056;-92
2021/05/16 13:46:58;;;;;;;7.00;2.75;;;;;;;19.85;58.29;100107.41;4761201;30;20114;-91
2021/05/16 13:49:32;;;;;;;5.75;2.90;;;;;;;19.84;58.17;100110.09;4753417;30;20382;-92
2021/05/16 13:52:05;;;;;;;6.85;2.70;;;;;;;19.86;58.26;100118.72;4754288;30;20040;-92
2021/05/16 13:54:33;;;;;;;6.80;2.95;;;;;;;19.84;57.63;100104.88;4753056;30;20043;-93
2021/05/16 13:57:09;;;;;;;5.05;2.58;;;;;;;19.87;58.26;100112.59;4752876;30;20032;-91
2021/05/16 13:59:43;;;;;;;6.07;2.78;;;;;;;19.89;58.15;100118.63;4753616;30;20045;-89
2021/05/16 14:02:12;;;;;;;9.98;2.67;;;;;;;19.91;58.29;100119.44;4753304;30;20092;-92
2021/05/16 14:04:38;;;;;;;16.90;2.97;;;;;;;19.96;58.34;100116.69;4768379;30;20032;-93
2021/05/16 14:07:13;;;;;;;34.70;3.70;;;;;;;19.98;58.39;100107.06;4753300;30;20543;-91
2021/05/16 14:09:39;;;;;;;24.08;3.60;;;;;;;19.99;58.28;100103.53;4738224;30;20435;-88
2021/05/16 14:12:07;;;;;;;15.75;3.42;;;;;;;19.97;58.35;100098.38;4753410;30;20115;-90
2021/05/16 14:14:35;;;;;;;8.77;3.00;;;;;;;19.97;58.10;100097.50;4738962;30;20032;-91
2021/05/16 14:19:58;;;;;;;;;;;;;;;;;;;;;
2021/05/16 14:22:52;;;;;;;9.73;3.17;;;;;;;19.99;58.08;100100.91;4809125;29;20145;-90
2021/05/16 14:28:28;;;;;;;14.40;3.58;;;;;;;20.10;59.91;100085.78;4807177;29;20027;-93
2021/05/16 14:30:56;;;;;;;15.77;3.10;;;;;;;20.14;59.40;100100.44;4792510;29;20066;-91
2021/05/16 14:33:22;;;;;;;12.68;2.83;;;;;;;20.10;58.83;100093.63;4791178;29;20027;-90
2021/05/16 14:35:49;;;;;;;6.70;2.45;;;;;;;20.03;58.87;100092.94;4791993;29;20406;-90
2021/05/16 14:38:15;;;;;;;8.82;2.60;;;;;;;20.01;58.66;100093.88;4814722;29;20094;-91
2021/05/16 14:40:41;;;;;;;6.22;2.35;;;;;;;19.96;58.60;100091.41;4806526;29;20027;-93
2021/05/16 14:43:09;;;;;;;7.40;2.47;;;;;;;19.91;58.70;100090.72;4777700;29;20376;-93
2021/05/16 14:45:34;;;;;;;7.47;2.50;;;;;;;19.88;58.69;100086.47;4792609;29;20031;-93
2021/05/16 14:48:11;;;;;;;6.93;2.38;;;;;;;19.86;58.49;100088.25;4793180;29;20034;-90
2021/05/16 14:50:53;;;;;;;7.20;2.88;;;;;;;19.83;58.56;100095.31;4784237;29;20039;-89
2021/05/16 14:53:19;;;;;;;15.52;2.70;;;;;;;19.85;58.64;100088.28;4792175;29;20363;-91
2021/05/16 14:55:48;;;;;;;7.75;2.70;;;;;;;19.84;58.69;100084.84;4791808;29;20027;-91
2021/05/16 14:58:14;;;;;;;6.35;2.30;;;;;;;19.83;58.58;100082.25;4807579;29;20066;-89
2021/05/16 15:00:39;;;;;;;11.88;2.78;;;;;;;19.82;58.76;100083.19;4791290;29;20031;-91
2021/05/16 15:03:30;;;;;;;6.28;2.65;;;;;;;19.80;58.53;100087.59;4805615;29;20031;-92
2021/05/16 15:05:55;;;;;;;5.75;2.28;;;;;;;19.80;58.39;100084.97;4776883;29;20038;-90
2021/05/16 15:08:21;;;;;;;6.97;2.80;;;;;;;19.79;58.38;100080.66;4791496;29;20097;-89
2021/05/16 15:10:46;;;;;;;5.38;2.20;;;;;;;19.78;58.29;100085.03;4794546;29;20031;-91
2021/05/16 15:13:17;;;;;;;6.28;2.50;;;;;;;19.78;58.33;100079.81;4794265;29;20534;-92
2021/05/16 15:15:42;;;;;;;9.13;2.28;;;;;;;19.76;58.48;100072.91;4794351;29;20038;-90
2021/05/16 15:18:28;;;;;;;8.65;2.80;;;;;;;19.76;58.12;100079.00;4794143;29;20031;-90
2021/05/16 15:20:54;;;;;;;6.95;2.60;;;;;;;19.76;58.33;100084.22;4781931;29;20085;-92
2021/05/16 15:23:20;;;;;;;7.68;2.50;;;;;;;19.75;58.11;100077.28;4801261;29;20023;-93
2021/05/16 15:25:45;;;;;;;5.68;2.20;;;;;;;19.73;58.24;100079.09;4800736;29;20483;-93
2021/05/16 15:28:11;;;;;;;6.32;2.45;;;;;;;19.74;58.31;100072.97;4795738;29;20042;-92
2021/05/16 15:30:36;;;;;;;6.13;2.42;;;;;;;19.73;58.19;100072.13;4779683;29;20203;-91
2021/05/16 15:33:02;;;;;;;5.13;2.42;;;;;;;19.73;57.90;100071.28;4794719;29;20042;-91
2021/05/16 15:35:27;;;;;;;5.30;2.20;;;;;;;19.71;58.11;100071.31;4786385;29;20019;-92
2021/05/16 15:37:53;;;;;;;5.07;2.47;;;;;;;19.73;58.01;100077.34;4805490;29;20023;-93
2021/05/16 15:40:19;;;;;;;5.82;2.13;;;;;;;19.72;57.91;100074.75;4793926;29;20065;-89
2021/05/16 15:42:45;;;;;;;7.95;2.33;;;;;;;19.73;57.97;100074.72;4764374;29;20102;-89
2021/05/16 15:45:11;;;;;;;6.82;2.35;;;;;;;19.73;57.93;100076.50;4794478;29;20030;-92
2021/05/16 15:47:36;;;;;;;6.60;2.65;;;;;;;19.73;57.88;100079.94;4811470;29;20066;-93
2021/05/16 15:50:03;;;;;;;6.32;2.42;;;;;;;19.73;57.84;100071.28;4794768;29;20037;-92
2021/05/16 15:52:29;;;;;;;4.85;2.20;;;;;;;19.72;57.67;100067.78;4795396;29;20486;-92
2021/05/16 15:54:54;;;;;;;5.68;2.30;;;;;;;19.71;57.74;100065.25;4795714;29;20130;-91
2021/05/16 15:57:20;;;;;;;4.47;2.00;;;;;;;19.72;57.75;100065.16;4780311;29;20038;-93
2021/05/16 15:59:46;;;;;;;5.03;2.25;;;;;;;19.71;57.47;100063.47;4795568;29;20063;-92
2021/05/16 16:02:12;;;;;;;7.28;2.45;;;;;;;19.71;57.62;100060.00;4765110;29;20126;-93
2021/05/16 16:04:37;;;;;;;5.68;2.20;;;;;;;19.72;57.50;100065.16;4795293;29;20486;-92
2021/05/16 16:07:03;;;;;;;4.70;2.20;;;;;;;19.71;57.67;100060.00;4795455;29;20126;-93
2021/05/16 16:09:28;;;;;;;6.18;2.30;;;;;;;19.72;57.71;100061.72;4778568;29;20490;-90
2021/05/16 16:11:54;;;;;;;7.10;2.30;;;;;;;19.72;57.44;100057.34;4793905;29;20066;-90
2021/05/16 16:14:19;;;;;;;8.07;3.60;;;;;;;19.75;57.37;100056.41;4778682;29;20042;-90
2021/05/16 16:16:45;;;;;;;7.53;3.15;;;;;;;19.74;56.66;100059.91;4792452;29;20139;-88
2021/05/16 16:19:10;;;;;;;8.32;3.20;;;;;;;19.73;56.81;100066.03;4794962;29;20580;-90
2021/05/16 16:21:36;;;;;;;8.57;3.50;;;;;;;19.73;56.60;100061.66;4783139;29;20062;-90
2021/05/16 16:24:01;;;;;;;9.32;3.58;;;;;;;19.71;56.96;100057.41;4785728;29;20062;-90
2021/05/16 16:26:27;;;;;;;8.32;3.08;;;;;;;19.69;57.09;100065.28;4770459;29;20049;-88
2021/05/16 16:28:52;;;;;;;7.38;3.30;;;;;;;19.71;57.10;100066.09;4794970;29;20503;-91
2021/05/16 16:31:18;;;;;;;7.95;2.90;;;;;;;19.74;57.21;100065.13;4792397;29;20030;-88
2021/05/16 16:33:44;;;;;;;6.93;3.13;;;;;;;19.74;57.33;100054.69;4777478;29;20038;-90
2021/05/16 16:36:12;;;;;;;7.13;2.60;;;;;;;19.74;57.33;100062.53;4792827;29;20045;-90
2021/05/16 16:38:38;;;;;;;7.20;2.95;;;;;;;19.74;57.65;100054.69;4792329;29;20034;-89
2021/05/16 16:41:04;;;;;;;6.30;2.65;;;;;;;19.75;57.21;100052.94;4793261;29;20122;-89
2021/05/16 16:43:30;;;;;;;7.13;2.92;;;;;;;19.76;57.36;100052.03;4777802;29;20042;-89
2021/05/16 16:45:56;;;;;;;8.05;2.40;;;;;;;19.74;57.39;100049.47;4808313;29;20616;-89
2021/05/16 16:48:21;;;;;;;5.47;2.47;;;;;;;19.73;57.63;100050.38;4794406;29;20395;-88
2021/05/16 16:50:46;;;;;;;7.97;3.05;;;;;;;19.73;57.27;100053.00;4784018;29;20046;-89
2021/05/16 16:53:12;;;;;;;8.10;2.30;;;;;;;19.71;57.36;100044.34;4794268;29;20015;-90
2021/05/16 16:55:38;;;;;;;7.00;2.85;;;;;;;19.72;57.53;100046.91;4793386;29;20039;-90
2021/05/16 16:58:05;;;;;;;6.63;2.72;;;;;;;19.72;57.50;100046.91;4763822;29;20031;-91
2021/05/16 17:00:31;;;;;;;5.70;2.42;;;;;;;19.73;57.63;100047.78;4792518;29;20098;-90
2021/05/16 17:02:57;;;;;;;5.68;2.30;;;;;;;19.71;57.62;100049.56;4792071;29;20027;-90
2021/05/16 17:05:22;;;;;;;5.28;2.38;;;;;;;19.72;57.47;100053.88;4791959;29;20057;-91
2021/05/16 17:07:48;;;;;;;7.20;2.33;;;;;;;19.73;57.59;100045.16;4777923;29;20069;-90
2021/05/16 17:10:16;;;;;;;6.90;2.75;;;;;;;19.72;57.47;100043.44;4792089;29;20547;-89
2021/05/16 17:12:42;;;;;;;6.88;2.60;;;;;;;19.73;57.74;100047.78;4807610;29;20163;-89
2021/05/16 17:15:09;;;;;;;6.68;2.38;;;;;;;19.72;57.96;100039.06;4792931;29;20046;-90
2021/05/16 17:17:34;;;;;;;6.55;2.13;;;;;;;19.74;58.30;100046.84;4791899;29;20031;-90
2021/05/16 17:20:00;;;;;;;7.00;2.17;;;;;;;19.72;58.22;100040.81;4793698;29;20419;-90
2021/05/16 17:22:25;;;;;;;7.50;2.35;;;;;;;19.75;58.30;100042.47;4793816;29;20376;-87
2021/05/16 17:24:52;;;;;;;8.48;2.03;;;;;;;19.76;59.09;100036.38;4792943;29;20031;-89
2021/05/16 17:27:18;;;;;;;7.32;2.30;;;;;;;19.73;58.36;100035.56;4808854;29;20121;-90
2021/05/16 17:29:46;;;;;;;5.35;2.25;;;;;;;19.72;58.72;100031.22;4777444;29;20118;-90
2021/05/16 17:32:11;;;;;;;8.23;1.98;;;;;;;19.69;57.70;100031.34;4792631;29;20075;-90
2021/05/16 17:34:36;;;;;;;5.60;2.28;;;;;;;19.65;57.23;100029.69;4793612;29;20019;-91
2021/05/16 17:37:09;;;;;;;11.05;2.83;;;;;;;19.64;56.91;100027.13;4794462;29;20371;-90
2021/05/16 17:39:35;;;;;;;7.75;2.65;;;;;;;19.59;56.59;100024.66;4793357;29;20442;-90
2021/05/16 17:42:01;;;;;;;10.52;2.88;;;;;;;19.54;56.05;100029.16;4778857;29;20062;-89
2021/05/16 17:44:31;;;;;;;9.32;2.92;;;;;;;19.49;56.21;100024.09;4792888;29;20429;-89
2021/05/16 17:46:57;;;;;;;10.55;3.03;;;;;;;19.46;56.13;100024.16;4792532;29;20031;-88
2021/05/16 17:49:23;;;;;;;8.35;2.92;;;;;;;19.47;55.91;100025.91;4776433;29;20047;-89
2021/05/16 17:51:48;;;;;;;8.57;2.40;;;;;;;19.49;55.91;100031.06;4808097;29;20034;-90
2021/05/16 17:54:14;;;;;;;9.65;2.78;;;;;;;19.49;55.64;100026.69;4792306;29;20514;-89
2021/05/16 17:56:39;;;;;;;6.35;2.47;;;;;;;19.47;54.89;100030.28;4761840;29;20050;-89
2021/05/16 17:59:06;;;;;;;7.78;2.40;;;;;;;19.43;54.63;100031.25;4776320;29;20050;-88
2021/05/16 18:01:34;;;;;;;10.10;2.22;;;;;;;19.37;53.75;100028.81;4791238;29;20031;-89
2021/05/16 18:03:59;;;;;;;8.52;2.20;;;;;;;19.31;53.86;100032.47;4776111;29;20043;-89
2021/05/16 18:06:25;;;;;;;6.60;2.42;;;;;;;19.24;52.85;100034.41;4790696;29;20033;-88
2021/05/16 18:08:50;;;;;;;7.75;2.03;;;;;;;19.19;52.56;100032.84;4790793;29;20059;-87
2021/05/16 18:11:16;;;;;;;7.78;2.30;;;;;;;19.18;52.61;100039.78;4761426;29;20066;-88
2021/05/16 18:13:41;;;;;;;9.07;2.20;;;;;;;19.16;52.14;100038.97;4776810;29;20513;-89
2021/05/16 18:16:08;;;;;;;6.70;1.98;;;;;;;19.13;51.90;100033.84;4777210;29;20027;-87
2021/05/16 18:18:36;;;;;;;7.90;2.30;;;;;;;19.09;52.07;100033.06;4792901;29;20058;-88
2021/05/16 18:21:02;;;;;;;7.47;2.30;;;;;;;19.08;51.74;100038.34;4774513;30;20512;-89
2021/05/16 18:23:28;;;;;;;5.97;2.00;;;;;;;19.09;50.88;100038.28;4774967;30;20035;-88
2021/05/16 18:25:54;;;;;;;5.30;1.60;;;;;;;19.08;51.93;100036.59;4791238;30;20031;-89
2021/05/16 18:28:19;;;;;;;5.68;1.90;;;;;;;19.10;50.77;100040.00;4791190;30;20028;-89
2021/05/16 18:30:45;;;;;;;7.13;2.30;;;;;;;19.09;51.03;100040.91;4760791;30;20411;-88
2021/05/16 18:33:11;;;;;;;8.68;2.10;;;;;;;19.10;51.01;100039.16;4791341;30;20062;-89
2021/05/16 18:35:38;;;;;;;5.28;1.63;;;;;;;19.08;51.24;100035.75;4777865;30;20031;-87
2021/05/16 18:38:04;;;;;;;5.63;1.60;;;;;;;19.10;50.92;100052.22;4794409;30;20044;-89
2021/05/16 18:40:31;;;;;;;7.03;1.77;;;;;;;19.07;51.10;100031.41;4794757;30;20027;-88
2021/05/16 18:42:56;;;;;;;4.47;1.50;;;;;;;19.07;50.87;100039.25;4792017;29;20057;-89
2021/05/16 18:45:23;;;;;;;6.70;2.00;;;;;;;19.05;51.23;100038.44;4797302;30;20476;-90
2021/05/16 19:30:38;;;;;;;5.57;1.63;;;;;;;18.90;51.46;100053.63;4909421;24;20070;-90
2021/05/16 19:50:54;;;;;;;4.80;1.80;;;;;;;18.81;51.80;100063.41;4865370;24;20051;-91
2021/05/16 19:53:21;;;;;;;6.15;1.65;;;;;;;18.81;51.66;100064.28;4792207;30;20036;-89
2021/05/16 20:12:04;;;;;;;4.63;1.83;;;;;;;18.71;51.39;100065.41;4831039;24;20066;-93
2021/05/16 21:21:59;;;;;;;5.95;1.63;;;;;;;18.46;50.61;100070.38;5111062;24;20063;-90
2021/05/16 21:55:47;;;;;;;7.80;2.00;;;;;;;18.38;50.43;100067.09;4885122;24;20039;-87
2021/05/16 22:05:24;;;;;;;5.35;1.83;;;;;;;18.67;51.53;100063.75;4806497;29;20647;-86
2021/05/16 22:21:51;;;;;;;7.10;1.83;;;;;;;18.76;52.27;100066.13;4846142;24;20054;-86
2021/05/16 22:34:05;;;;;;;8.68;1.85;;;;;;;18.78;52.83;100059.16;4757113;30;20068;-85
2021/05/16 22:36:30;;;;;;;7.25;1.80;;;;;;;18.81;53.14;100063.41;4724632;30;20133;-88
2021/05/16 22:38:55;;;;;;;6.95;1.88;;;;;;;18.82;52.96;100052.13;4735768;30;20033;-86
2021/05/16 23:30:54;;;;;;;4.60;1.52;;;;;;;18.88;54.30;100098.88;4902386;24;20091;-90
2021/05/16 23:33:24;;;;;;;5.13;1.55;;;;;;;18.88;54.31;100093.66;4770463;30;20043;-88
2021/05/16 23:35:53;;;;;;;2.67;1.20;;;;;;;18.89;54.22;100092.75;4782658;30;20036;-87
2021/05/16 23:58:25;;;;;;;2.28;1.10;;;;;;;18.87;54.85;100058.06;4933473;24;19932;-92
